createdAt,value
2022-07-29T00:00:01.382Z,18.23
2022-07-29T00:02:28.980Z,16.70
2022-07-29T00:04:55.670Z,14.98
2022-07-29T00:07:22.344Z,17.38
2022-07-29T00:09:51.562Z,16.27
2022-07-29T00:12:26.318Z,16.08
2022-07-29T00:14:55.415Z,15.93
2022-07-29T00:17:22.434Z,14.35
2022-07-29T00:19:49.110Z,15.82
2022-07-29T00:22:15.750Z,15.05
2022-07-29T00:24:42.362Z,18.80
2022-07-29T00:27:09.110Z,20.40
2022-07-29T00:29:35.833Z,16.58
2022-07-29T00:32:03.473Z,17.77
2022-07-29T00:34:48.939Z,17.85
2022-07-29T00:37:15.545Z,19.75
2022-07-29T00:39:42.159Z,20.13
2022-07-29T00:42:09.194Z,22.08
2022-07-29T00:44:40.546Z,23.70
2022-07-29T00:47:08.519Z,22.23
2022-07-29T00:49:35.991Z,18.73
2022-07-29T00:52:04.286Z,24.77
2022-07-29T00:54:31.308Z,20.27
2022-07-29T00:57:01.504Z,18.58
2022-07-29T00:59:35.028Z,22.55
2022-07-29T01:02:04.152Z,19.27
2022-07-29T01:04:32.518Z,18.88
2022-07-29T01:07:01.615Z,20.88
2022-07-29T01:09:43.230Z,19.35
2022-07-29T01:12:21.091Z,22.77
2022-07-29T01:14:49.780Z,20.60
2022-07-29T01:17:24.201Z,20.88
2022-07-29T01:20:19.824Z,21.10
2022-07-29T01:22:58.389Z,24.05
2022-07-29T01:26:05.277Z,21.88
2022-07-29T01:28:53.788Z,20.75
2022-07-29T01:31:36.639Z,20.17
2022-07-29T01:34:12.252Z,16.83
2022-07-29T01:36:47.963Z,25.20
2022-07-29T01:39:42.479Z,21.17
2022-07-29T01:42:12.175Z,19.25
2022-07-29T01:45:11.076Z,20.00
2022-07-29T01:47:47.611Z,20.90
2022-07-29T01:50:18.779Z,18.30
2022-07-29T01:53:01.286Z,19.43
2022-07-29T01:55:36.184Z,21.58
2022-07-29T01:58:06.375Z,20.58
2022-07-29T02:00:35.163Z,22.15
2022-07-29T02:03:05.245Z,19.20
2022-07-29T02:05:34.351Z,20.15
2022-07-29T02:08:03.013Z,19.27
2022-07-29T02:10:32.361Z,19.25
2022-07-29T02:13:00.439Z,22.73
2022-07-29T02:15:29.791Z,17.88
2022-07-29T02:18:01.207Z,19.88
2022-07-29T02:20:29.924Z,18.75
2022-07-29T02:22:58.284Z,17.05
2022-07-29T02:25:36.796Z,22.95
2022-07-29T02:28:06.200Z,20.27
2022-07-29T02:30:34.072Z,25.70
2022-07-29T02:33:01.882Z,20.88
2022-07-29T02:35:29.339Z,20.17
2022-07-29T02:38:21.599Z,19.10
2022-07-29T02:40:50.843Z,19.70
2022-07-29T02:43:19.830Z,21.23
2022-07-29T02:45:51.682Z,20.77
2022-07-29T02:48:24.347Z,20.33
2022-07-29T02:50:56.646Z,22.52
2022-07-29T02:53:28.122Z,19.15
2022-07-29T02:56:00.016Z,20.42
2022-07-29T02:58:38.220Z,19.08
2022-07-29T03:01:13.438Z,24.05
2022-07-29T03:03:45.904Z,21.73
2022-07-29T03:06:37.831Z,20.77
2022-07-29T03:09:05.003Z,22.20
2022-07-29T03:11:45.885Z,24.92
2022-07-29T03:14:20.489Z,25.60
2022-07-29T03:16:48.645Z,31.90
2022-07-29T03:19:16.041Z,27.15
2022-07-29T03:21:42.747Z,20.25
2022-07-29T03:24:10.766Z,20.95
2022-07-29T03:26:39.296Z,19.75
2022-07-29T03:29:05.923Z,23.77
2022-07-29T03:31:33.722Z,26.60
2022-07-29T03:34:01.021Z,23.35
2022-07-29T03:36:27.874Z,27.83
2022-07-29T03:38:55.642Z,23.00
2022-07-29T03:41:24.065Z,22.77
2022-07-29T03:43:52.621Z,18.63
2022-07-29T03:46:24.332Z,23.13
2022-07-29T03:48:56.024Z,25.30
2022-07-29T03:51:31.580Z,22.33
2022-07-29T03:54:00.736Z,21.67
2022-07-29T03:56:29.928Z,24.85
2022-07-29T03:58:57.111Z,22.55
2022-07-29T04:01:24.961Z,18.27
2022-07-29T04:03:52.471Z,28.92
2022-07-29T04:06:19.204Z,18.30
2022-07-29T04:08:45.916Z,21.63
2022-07-29T04:11:13.816Z,21.98
2022-07-29T04:13:40.409Z,19.38
2022-07-29T04:16:07.277Z,17.90
2022-07-29T04:18:34.077Z,22.30
2022-07-29T04:21:01.867Z,22.63
2022-07-29T04:23:33.453Z,18.17
2022-07-29T04:26:02.132Z,20.05
2022-07-29T04:28:29.147Z,21.08
2022-07-29T04:30:55.816Z,18.50
2022-07-29T04:33:22.531Z,23.67
2022-07-29T04:35:52.689Z,21.00
2022-07-29T04:38:23.151Z,15.27
2022-07-29T04:40:49.964Z,17.45
2022-07-29T04:43:16.919Z,21.58
2022-07-29T04:45:49.530Z,19.05
2022-07-29T04:48:16.161Z,26.65
2022-07-29T04:50:43.172Z,19.75
2022-07-29T04:53:09.862Z,19.85
2022-07-29T04:55:38.887Z,18.05
2022-07-29T04:58:05.896Z,20.55
2022-07-29T05:00:33.603Z,19.30
2022-07-29T05:03:00.663Z,20.73
2022-07-29T05:05:27.632Z,24.13
2022-07-29T05:07:54.272Z,20.98
2022-07-29T05:10:20.943Z,18.73
2022-07-29T05:12:47.700Z,16.48
2022-07-29T05:15:14.656Z,19.58
2022-07-29T05:17:41.596Z,18.52
2022-07-29T05:20:09.304Z,18.88
2022-07-29T05:22:36.225Z,19.50
2022-07-29T05:25:08.887Z,17.15
2022-07-29T05:27:36.941Z,24.10
2022-07-29T05:30:04.165Z,19.35
2022-07-29T05:32:30.837Z,22.30
2022-07-29T05:34:57.476Z,23.10
2022-07-29T05:37:24.130Z,29.98
2022-07-29T05:39:57.158Z,22.45
2022-07-29T05:42:25.291Z,25.48
2022-07-29T05:44:52.452Z,27.17
2022-07-29T05:47:19.770Z,22.23
2022-07-29T05:49:47.131Z,26.02
2022-07-29T05:52:14.437Z,24.77
2022-07-29T05:54:41.208Z,24.90
2022-07-29T05:57:08.399Z,21.50
2022-07-29T05:59:38.536Z,31.70
2022-07-29T06:02:06.249Z,27.00
2022-07-29T06:04:34.679Z,23.08
2022-07-29T06:07:01.467Z,25.52
2022-07-29T06:09:29.262Z,21.50
2022-07-29T06:11:56.082Z,23.75
2022-07-29T06:14:22.749Z,23.83
2022-07-29T06:16:49.418Z,27.88
2022-07-29T06:19:16.834Z,21.65
2022-07-29T06:21:44.569Z,18.33
2022-07-29T06:24:15.774Z,16.92
2022-07-29T06:26:43.396Z,17.80
2022-07-29T06:29:11.709Z,19.52
2022-07-29T06:31:38.936Z,27.70
2022-07-29T06:34:05.667Z,22.45
2022-07-29T06:36:35.880Z,24.40
2022-07-29T06:39:08.632Z,21.60
2022-07-29T06:41:36.539Z,24.23
2022-07-29T06:44:03.570Z,17.85
2022-07-29T06:46:30.272Z,19.48
2022-07-29T06:48:56.980Z,16.45
2022-07-29T06:51:24.257Z,24.92
2022-07-29T06:53:58.258Z,28.85
2022-07-29T06:56:26.687Z,19.90
2022-07-29T06:58:53.356Z,18.65
2022-07-29T07:01:20.859Z,17.60
2022-07-29T07:03:48.875Z,15.30
2022-07-29T07:06:15.724Z,14.85
2022-07-29T07:08:42.454Z,20.15
2022-07-29T07:11:09.734Z,21.80
2022-07-29T07:13:36.903Z,14.98
2022-07-29T07:16:04.982Z,13.98
2022-07-29T07:18:31.763Z,9.25
2022-07-29T07:20:58.929Z,9.48
2022-07-29T07:23:26.690Z,7.10
2022-07-29T07:25:53.776Z,5.88
2022-07-29T07:28:24.547Z,9.25
2022-07-29T07:30:52.692Z,5.40
2022-07-29T07:33:19.552Z,6.95
2022-07-29T07:35:46.327Z,7.13
2022-07-29T07:38:13.080Z,10.23
2022-07-29T07:40:39.988Z,7.45
2022-07-29T07:43:06.711Z,8.23
2022-07-29T07:45:38.151Z,7.97
2022-07-29T07:48:05.817Z,6.05
2022-07-29T07:50:32.993Z,5.20
2022-07-29T07:53:00.634Z,6.53
2022-07-29T07:55:27.563Z,6.43
2022-07-29T07:57:55.967Z,14.30
2022-07-29T08:00:23.868Z,8.07
2022-07-29T08:02:51.222Z,14.38
2022-07-29T08:05:18.399Z,12.98
2022-07-29T08:07:46.854Z,4.55
2022-07-29T08:10:15.251Z,7.75
2022-07-29T08:12:42.713Z,7.18
2022-07-29T08:15:09.898Z,12.50
2022-07-29T08:17:36.626Z,6.78
2022-07-29T08:20:03.876Z,4.40
2022-07-29T08:22:30.558Z,5.03
2022-07-29T08:24:57.243Z,11.48
2022-07-29T08:27:43.042Z,5.50
2022-07-29T08:30:11.350Z,4.40
2022-07-29T08:32:53.111Z,6.95
2022-07-29T08:35:23.450Z,6.55
2022-07-29T08:37:50.330Z,5.05
2022-07-29T08:40:17.327Z,9.20
2022-07-29T08:42:44.033Z,5.47
2022-07-29T08:45:10.900Z,4.82
2022-07-29T08:47:40.812Z,7.82
2022-07-29T08:50:09.674Z,5.05
2022-07-29T08:52:38.318Z,5.65
2022-07-29T08:55:09.991Z,4.88
2022-07-29T08:57:37.405Z,4.93
2022-07-29T09:00:11.762Z,6.82
2022-07-29T09:02:46.750Z,6.28
2022-07-29T09:05:14.460Z,4.25
2022-07-29T09:07:44.290Z,5.55
2022-07-29T09:10:11.440Z,6.18
2022-07-29T09:12:38.491Z,3.83
2022-07-29T09:15:05.503Z,3.95
2022-07-29T09:17:46.441Z,4.75
2022-07-29T09:20:17.150Z,10.70
2022-07-29T09:22:43.933Z,4.30
2022-07-29T09:25:13.280Z,5.03
2022-07-29T09:27:40.104Z,12.77
2022-07-29T09:30:11.726Z,4.05
2022-07-29T09:33:04.416Z,5.95
2022-07-29T09:35:31.796Z,5.63
2022-07-29T09:37:58.710Z,3.95
2022-07-29T09:40:28.619Z,4.32
2022-07-29T09:42:59.329Z,3.38
2022-07-29T09:45:29.300Z,5.37
2022-07-29T09:47:58.451Z,5.30
2022-07-29T09:50:39.878Z,5.65
2022-07-29T09:53:06.790Z,9.32
2022-07-29T09:55:33.602Z,7.80
2022-07-29T09:58:21.696Z,6.25
2022-07-29T10:00:50.746Z,5.20
2022-07-29T10:03:18.426Z,6.93
2022-07-29T10:05:46.188Z,5.78
2022-07-29T10:08:13.732Z,6.03
2022-07-29T10:10:45.567Z,5.10
2022-07-29T10:13:16.106Z,7.97
2022-07-29T10:15:46.837Z,4.10
2022-07-29T10:18:15.314Z,13.80
2022-07-29T10:20:42.528Z,5.20
2022-07-29T10:23:10.008Z,9.10
2022-07-29T10:25:36.652Z,7.30
2022-07-29T10:28:03.884Z,7.65
2022-07-29T10:30:30.709Z,4.70
2022-07-29T10:33:22.100Z,8.27
2022-07-29T10:36:07.451Z,4.28
2022-07-29T10:39:08.164Z,4.55
2022-07-29T10:41:48.127Z,5.55
2022-07-29T10:44:23.109Z,3.30
2022-07-29T10:46:51.738Z,5.20
2022-07-29T10:49:24.886Z,3.72
2022-07-29T10:52:02.529Z,4.47
2022-07-29T10:54:36.343Z,3.97
2022-07-29T10:57:14.068Z,4.55
2022-07-29T10:59:42.904Z,5.45
2022-07-29T11:02:46.928Z,5.55
2022-07-29T11:05:19.950Z,4.15
2022-07-29T11:08:19.641Z,3.70
2022-07-29T11:11:08.103Z,7.57
2022-07-29T11:13:49.422Z,5.13
2022-07-29T11:16:20.112Z,5.80
2022-07-29T11:21:55.042Z,5.40
2022-07-29T11:24:33.052Z,3.50
2022-07-29T11:27:13.299Z,6.85
2022-07-29T11:29:48.363Z,3.72
2022-07-29T11:32:22.852Z,10.43
2022-07-29T11:35:17.194Z,5.90
2022-07-29T11:38:08.674Z,5.65
2022-07-29T11:40:37.846Z,4.80
2022-07-29T11:43:07.280Z,3.70
2022-07-29T11:45:48.113Z,14.02
2022-07-29T11:48:31.323Z,5.70
2022-07-29T11:51:00.412Z,6.47
2022-07-29T11:53:28.799Z,5.35
2022-07-29T11:56:00.271Z,6.45
2022-07-29T11:58:28.362Z,4.28
2022-07-29T12:00:56.306Z,4.80
2022-07-29T12:03:34.937Z,11.07
2022-07-29T12:06:02.647Z,4.90
2022-07-29T12:08:29.312Z,4.95
2022-07-29T12:10:55.947Z,5.15
2022-07-29T12:13:22.941Z,5.28
2022-07-29T12:16:04.977Z,4.65
2022-07-29T12:18:32.176Z,5.38
2022-07-29T12:21:04.992Z,4.93
2022-07-29T12:23:35.722Z,7.00
2022-07-29T12:26:07.467Z,4.65
2022-07-29T12:28:40.806Z,6.30
2022-07-29T12:31:15.098Z,4.13
2022-07-29T12:34:01.959Z,6.82
2022-07-29T12:36:28.741Z,4.72
2022-07-29T12:38:55.543Z,5.57
2022-07-29T12:41:23.259Z,7.25
2022-07-29T12:43:55.108Z,5.15
2022-07-29T12:46:22.153Z,5.70
2022-07-29T12:48:55.953Z,5.03
2022-07-29T12:51:32.079Z,4.90
2022-07-29T12:54:14.440Z,6.32
2022-07-29T12:56:44.479Z,6.78
2022-07-29T12:59:18.735Z,11.40
2022-07-29T13:01:48.989Z,7.10
2022-07-29T13:04:33.721Z,6.68
2022-07-29T13:07:09.200Z,8.20
2022-07-29T13:09:42.990Z,4.95
2022-07-29T13:12:11.861Z,10.77
2022-07-29T13:14:39.890Z,5.70
2022-07-29T13:17:06.597Z,4.90
2022-07-29T13:19:41.555Z,7.18
2022-07-29T13:22:13.118Z,4.75
2022-07-29T13:24:50.275Z,8.10
2022-07-29T13:27:21.972Z,6.07
2022-07-29T13:29:52.154Z,7.60
2022-07-29T13:32:19.933Z,7.40
2022-07-29T13:34:55.765Z,8.45
2022-07-29T13:37:22.519Z,5.57
2022-07-29T13:39:53.073Z,10.55
2022-07-29T13:42:20.233Z,5.50
2022-07-29T13:44:47.010Z,7.40
2022-07-29T13:47:13.931Z,6.05
2022-07-29T13:49:40.594Z,5.90
2022-07-29T13:52:08.391Z,7.72
2022-07-29T13:54:42.131Z,5.15
2022-07-29T13:57:11.838Z,6.15
2022-07-29T13:59:43.018Z,6.60
2022-07-29T14:02:10.792Z,4.25
2022-07-29T14:04:39.645Z,7.70
2022-07-29T14:07:06.958Z,6.63
2022-07-29T14:09:41.447Z,5.07
2022-07-29T14:12:09.203Z,6.90
2022-07-29T14:14:37.440Z,6.93
2022-07-29T14:17:04.563Z,9.45
2022-07-29T14:19:33.050Z,7.25
2022-07-29T14:22:00.204Z,7.70
2022-07-29T14:24:27.173Z,7.80
2022-07-29T14:26:53.989Z,4.78
2022-07-29T14:29:20.806Z,5.88
2022-07-29T14:31:47.515Z,5.43
2022-07-29T14:34:14.209Z,5.43
2022-07-29T14:36:40.870Z,5.95
2022-07-29T14:39:07.836Z,4.68
2022-07-29T14:41:34.526Z,6.47
2022-07-29T14:44:01.735Z,5.70
2022-07-29T14:46:29.028Z,7.07
2022-07-29T14:48:55.822Z,4.60
2022-07-29T14:51:22.503Z,10.10
2022-07-29T14:53:49.204Z,4.80
2022-07-29T14:56:35.997Z,5.75
2022-07-29T14:59:02.579Z,5.03
2022-07-29T15:01:30.194Z,4.80
2022-07-29T15:03:59.783Z,6.25
2022-07-29T15:06:27.504Z,5.57
2022-07-29T15:08:54.873Z,12.80
2022-07-29T15:11:21.618Z,9.10
2022-07-29T15:13:48.276Z,8.82
2022-07-29T15:16:14.943Z,5.22
2022-07-29T15:18:42.567Z,5.15
2022-07-29T15:21:09.352Z,5.72
2022-07-29T15:23:39.609Z,5.63
2022-07-29T15:26:06.296Z,5.65
2022-07-29T15:28:33.046Z,6.55
2022-07-29T15:30:59.696Z,7.70
2022-07-29T15:33:27.054Z,5.63
2022-07-29T15:35:53.637Z,5.85
2022-07-29T15:38:20.481Z,7.30
2022-07-29T15:40:55.831Z,5.22
2022-07-29T15:43:22.952Z,9.88
2022-07-29T15:46:08.676Z,5.75
2022-07-29T15:48:39.290Z,8.98
2022-07-29T15:51:06.234Z,11.27
2022-07-29T15:53:35.266Z,9.15
2022-07-29T15:56:02.206Z,5.85
2022-07-29T15:58:29.051Z,5.70
2022-07-29T16:00:55.987Z,7.20
2022-07-29T16:03:23.005Z,6.90
2022-07-29T16:05:49.679Z,7.22
2022-07-29T16:08:16.405Z,8.10
2022-07-29T16:10:43.033Z,6.05
2022-07-29T16:13:09.678Z,10.50
2022-07-29T16:15:36.277Z,7.15
2022-07-29T16:18:03.106Z,8.25
2022-07-29T16:20:30.216Z,5.80
2022-07-29T16:22:57.027Z,9.80
2022-07-29T16:25:38.411Z,5.60
2022-07-29T16:28:10.763Z,5.65
2022-07-29T16:30:37.521Z,10.80
2022-07-29T16:33:08.195Z,7.78
2022-07-29T16:35:39.647Z,9.63
2022-07-29T16:38:06.817Z,7.05
2022-07-29T16:40:33.487Z,11.77
2022-07-29T16:43:00.239Z,6.25
2022-07-29T16:45:28.044Z,8.90
2022-07-29T16:48:01.152Z,6.93
2022-07-29T16:50:28.874Z,7.07
2022-07-29T16:52:56.215Z,5.47
2022-07-29T16:55:23.358Z,5.72
2022-07-29T16:57:52.625Z,4.45
2022-07-29T17:00:21.124Z,5.30
2022-07-29T17:02:48.489Z,5.18
2022-07-29T17:05:15.918Z,7.50
2022-07-29T17:07:42.885Z,5.15
2022-07-29T17:10:10.474Z,8.93
2022-07-29T17:12:41.221Z,11.85
2022-07-29T17:15:10.830Z,8.73
2022-07-29T17:17:38.728Z,5.20
2022-07-29T17:20:08.838Z,7.63
2022-07-29T17:22:35.889Z,5.15
2022-07-29T17:25:04.701Z,11.05
2022-07-29T17:27:32.297Z,5.63
2022-07-29T17:29:59.255Z,5.30
2022-07-29T17:32:25.923Z,8.30
2022-07-29T17:34:52.892Z,7.75
2022-07-29T17:37:19.782Z,5.53
2022-07-29T17:39:46.452Z,6.50
2022-07-29T17:42:14.360Z,5.93
2022-07-29T17:44:41.547Z,7.57
2022-07-29T17:47:10.732Z,7.57
2022-07-29T17:49:43.785Z,10.88
2022-07-29T17:52:10.577Z,6.90
2022-07-29T17:54:37.248Z,9.98
2022-07-29T17:57:04.083Z,11.05
2022-07-29T17:59:30.882Z,5.90
2022-07-29T18:01:57.625Z,5.93
2022-07-29T18:04:25.048Z,8.23
2022-07-29T18:06:51.760Z,9.80
2022-07-29T18:09:18.669Z,5.18
2022-07-29T18:11:46.280Z,4.72
2022-07-29T18:14:13.632Z,12.45
2022-07-29T18:16:40.694Z,6.70
2022-07-29T18:19:07.545Z,8.05
2022-07-29T18:21:50.984Z,6.78
2022-07-29T18:24:25.571Z,10.93
2022-07-29T18:26:52.430Z,8.15
2022-07-29T18:29:19.159Z,9.43
2022-07-29T18:31:45.828Z,9.13
2022-07-29T18:34:12.509Z,11.18
2022-07-29T18:36:39.241Z,5.85
2022-07-29T18:39:05.873Z,11.80
2022-07-29T18:41:33.881Z,8.50
2022-07-29T18:44:00.998Z,11.50
2022-07-29T18:46:27.967Z,12.18
2022-07-29T18:48:57.353Z,8.43
2022-07-29T18:51:23.995Z,8.05
2022-07-29T18:53:50.626Z,10.63
2022-07-29T18:56:17.345Z,17.73
2022-07-29T18:58:43.959Z,16.00
2022-07-29T19:01:14.740Z,11.43
2022-07-29T19:03:43.418Z,9.70
2022-07-29T19:06:10.071Z,8.48
2022-07-29T19:08:36.700Z,5.80
2022-07-29T19:11:03.586Z,7.82
2022-07-29T19:13:30.977Z,9.35
2022-07-29T19:15:57.708Z,7.63
2022-07-29T19:18:24.755Z,11.40
2022-07-29T19:20:51.405Z,8.52
2022-07-29T19:23:18.501Z,16.65
2022-07-29T19:25:53.594Z,9.90
2022-07-29T19:28:21.373Z,8.93
2022-07-29T19:30:48.306Z,7.78
2022-07-29T19:33:17.499Z,8.18
2022-07-29T19:35:45.355Z,6.40
2022-07-29T19:38:11.983Z,5.75
2022-07-29T19:40:41.338Z,7.28
2022-07-29T19:43:50.586Z,10.05
2022-07-29T19:45:55.131Z,9.10
2022-07-29T19:48:21.728Z,10.57
2022-07-29T19:50:48.312Z,7.78
2022-07-29T19:53:15.004Z,8.30
2022-07-29T19:55:42.470Z,10.05
2022-07-29T19:58:09.319Z,12.70
2022-07-29T20:00:35.977Z,6.70
2022-07-29T20:03:04.702Z,6.90
2022-07-29T20:05:31.591Z,10.50
2022-07-29T20:07:58.638Z,5.75
2022-07-29T20:10:25.580Z,8.35
2022-07-29T20:12:53.907Z,7.50
2022-07-29T20:15:22.201Z,12.88
2022-07-29T20:17:48.808Z,15.98
2022-07-29T20:20:15.407Z,10.88
2022-07-29T20:22:42.104Z,8.63
2022-07-29T20:25:09.974Z,7.50
2022-07-29T20:27:39.398Z,6.35
2022-07-29T20:30:07.300Z,7.75
2022-07-29T20:32:35.009Z,8.55
2022-07-29T20:35:01.706Z,7.65
2022-07-29T20:37:28.366Z,12.05
2022-07-29T20:39:54.984Z,5.50
2022-07-29T20:42:21.641Z,9.18
2022-07-29T20:44:50.695Z,6.60
2022-07-29T20:47:17.377Z,9.90
2022-07-29T20:49:44.138Z,5.90
2022-07-29T20:52:10.769Z,10.38
2022-07-29T20:54:37.420Z,6.38
2022-07-29T20:57:04.291Z,6.95
2022-07-29T20:59:30.852Z,6.80
2022-07-29T21:01:57.620Z,8.07
2022-07-29T21:04:30.603Z,7.45
2022-07-29T21:06:58.153Z,8.57
2022-07-29T21:09:24.913Z,6.07
2022-07-29T21:11:51.568Z,5.13
2022-07-29T21:14:38.142Z,3.90
2022-07-29T21:17:07.140Z,7.80
2022-07-29T21:19:34.719Z,4.32
2022-07-29T21:22:01.514Z,8.45
2022-07-29T21:24:28.136Z,5.68
2022-07-29T21:27:20.765Z,5.95
2022-07-29T21:29:48.380Z,5.80
2022-07-29T21:32:28.430Z,6.93
2022-07-29T21:37:23.436Z,4.75
2022-07-29T21:39:50.063Z,5.03
2022-07-29T21:42:16.958Z,4.97
2022-07-29T21:44:44.087Z,6.45
2022-07-29T21:47:11.833Z,7.85
2022-07-29T21:49:38.643Z,5.03
2022-07-29T21:52:05.721Z,6.65
2022-07-29T21:54:34.720Z,4.90
2022-07-29T21:57:01.487Z,9.63
2022-07-29T21:59:28.196Z,6.20
2022-07-29T22:01:54.921Z,4.10
2022-07-29T22:04:21.906Z,7.38
2022-07-29T22:06:48.615Z,7.32
2022-07-29T22:09:15.384Z,7.05
2022-07-29T22:11:42.531Z,7.20
2022-07-29T22:14:09.417Z,5.88
2022-07-29T22:16:36.177Z,6.38
2022-07-29T22:19:03.923Z,3.85
2022-07-29T22:21:30.973Z,6.03
2022-07-29T22:23:58.175Z,4.68
2022-07-29T22:26:24.860Z,11.15
2022-07-29T22:28:51.605Z,4.82
2022-07-29T22:31:18.741Z,4.75
2022-07-29T22:33:45.783Z,4.55
2022-07-29T22:36:12.633Z,7.85
2022-07-29T22:38:39.309Z,8.20
2022-07-29T22:41:05.999Z,6.55
2022-07-29T22:43:32.605Z,7.13
2022-07-29T22:45:59.434Z,6.78
2022-07-29T22:48:26.035Z,6.30
2022-07-29T22:50:52.709Z,5.80
2022-07-29T22:53:19.293Z,5.57
2022-07-29T22:55:45.960Z,9.38
2022-07-29T22:58:12.586Z,12.15
2022-07-29T23:00:39.301Z,6.28
2022-07-29T23:03:06.036Z,6.70
2022-07-29T23:05:32.842Z,5.47
2022-07-29T23:08:00.070Z,4.45
2022-07-29T23:10:26.942Z,5.30
2022-07-29T23:12:53.646Z,3.65
2022-07-29T23:15:20.275Z,3.63
2022-07-29T23:17:47.041Z,2.85
2022-07-29T23:20:14.797Z,3.70
2022-07-29T23:22:41.889Z,5.90
2022-07-29T23:25:08.901Z,3.60
2022-07-29T23:27:36.359Z,4.35
2022-07-29T23:30:04.932Z,9.30
2022-07-29T23:32:31.721Z,5.32
2022-07-29T23:34:58.349Z,5.82
2022-07-29T23:37:25.240Z,6.40
2022-07-29T23:39:53.732Z,4.75
2022-07-29T23:42:20.429Z,6.55
2022-07-29T23:44:47.101Z,5.10
2022-07-29T23:47:13.805Z,7.47
2022-07-29T23:49:40.469Z,3.75
2022-07-29T23:52:07.150Z,3.80
2022-07-29T23:54:33.957Z,4.47
2022-07-29T23:57:01.211Z,7.97
2022-07-29T23:59:28.078Z,4.07
